sensor_id;sensor_type;location;lat;lon;timestamp;pressure;altitude;pressure_sealevel;temperature;humidity
8253;BME280;61313;48.396;10.008;2023-05-16T00:01:10;95837.69;;;11.78;70.27
8253;BME280;61313;48.396;10.008;2023-05-16T00:03:37;95839.41;;;11.79;70.56
8253;BME280;61313;48.396;10.008;2023-05-16T00:06:03;95841.28;;;11.61;70.92
8253;BME280;61313;48.396;10.008;2023-05-16T00:08:29;95843.41;;;11.54;71.79
8253;BME280;61313;48.396;10.008;2023-05-16T00:10:55;95842.44;;;11.71;70.90
8253;BME280;61313;48.396;10.008;2023-05-16T00:13:20;95835.19;;;11.60;71.22
8253;BME280;61313;48.396;10.008;2023-05-16T00:15:49;95841.59;;;11.71;70.88
8253;BME280;61313;48.396;10.008;2023-05-16T00:18:16;95834.06;;;11.64;71.62
8253;BME280;61313;48.396;10.008;2023-05-16T00:20:42;95825.91;;;11.69;70.88
8253;BME280;61313;48.396;10.008;2023-05-16T00:23:07;95830.53;;;11.65;71.68
8253;BME280;61313;48.396;10.008;2023-05-16T00:25:32;95832.56;;;11.60;71.40
8253;BME280;61313;48.396;10.008;2023-05-16T00:27:58;95835.69;;;11.67;71.47
8253;BME280;61313;48.396;10.008;2023-05-16T00:30:23;95832.97;;;11.69;70.71
8253;BME280;61313;48.396;10.008;2023-05-16T00:32:49;95839.41;;;11.79;70.67
8253;BME280;61313;48.396;10.008;2023-05-16T00:35:14;95834.25;;;11.61;72.04
8253;BME280;61313;48.396;10.008;2023-05-16T00:37:40;95843.09;;;11.44;71.97
8253;BME280;61313;48.396;10.008;2023-05-16T00:40:06;95845.22;;;11.38;72.28
8253;BME280;61313;48.396;10.008;2023-05-16T00:42:32;95852.19;;;11.39;72.75
8253;BME280;61313;48.396;10.008;2023-05-16T00:44:57;95844.88;;;11.28;73.22
8253;BME280;61313;48.396;10.008;2023-05-16T00:47:23;95839.63;;;11.12;73.80
8253;BME280;61313;48.396;10.008;2023-05-16T00:49:48;95838.34;;;11.19;73.25
8253;BME280;61313;48.396;10.008;2023-05-16T00:52:14;95841.31;;;11.13;73.74
8253;BME280;61313;48.396;10.008;2023-05-16T00:54:40;95833.09;;;11.19;73.14
8253;BME280;61313;48.396;10.008;2023-05-16T00:57:05;95826.16;;;11.02;73.52
8253;BME280;61313;48.396;10.008;2023-05-16T00:59:31;95829.28;;;11.09;73.59
8253;BME280;61313;48.396;10.008;2023-05-16T01:01:57;95835.38;;;11.10;73.56
8253;BME280;61313;48.396;10.008;2023-05-16T01:04:23;95836.41;;;11.07;73.86
8253;BME280;61313;48.396;10.008;2023-05-16T01:06:49;95841.91;;;11.02;73.61
8253;BME280;61313;48.396;10.008;2023-05-16T01:09:14;95834.72;;;11.06;74.09
8253;BME280;61313;48.396;10.008;2023-05-16T01:11:52;95836.91;;;11.14;73.37
8253;BME280;61313;48.396;10.008;2023-05-16T01:22:51;95821.16;;;11.30;72.42
8253;BME280;61313;48.396;10.008;2023-05-16T01:25:37;95815.66;;;11.34;72.37
8253;BME280;61313;48.396;10.008;2023-05-16T01:28:04;95821.16;;;11.30;72.23
8253;BME280;61313;48.396;10.008;2023-05-16T01:30:35;95812.34;;;11.31;72.17
8253;BME280;61313;48.396;10.008;2023-05-16T01:33:01;95815.91;;;11.30;72.72
8253;BME280;61313;48.396;10.008;2023-05-16T01:35:27;95825.72;;;11.26;72.35
8253;BME280;61313;48.396;10.008;2023-05-16T01:40:37;95808.19;;;11.27;72.39
8253;BME280;61313;48.396;10.008;2023-05-16T01:43:12;95819.44;;;11.29;72.14
8253;BME280;61313;48.396;10.008;2023-05-16T01:45:41;95813.34;;;11.28;72.48
8253;BME280;61313;48.396;10.008;2023-05-16T01:48:26;95816.25;;;11.23;72.53
8253;BME280;61313;48.396;10.008;2023-05-16T01:50:55;95815.72;;;11.17;72.69
8253;BME280;61313;48.396;10.008;2023-05-16T01:53:27;95814.88;;;11.16;72.48
8253;BME280;61313;48.396;10.008;2023-05-16T01:55:56;95817.94;;;11.09;72.99
8253;BME280;61313;48.396;10.008;2023-05-16T01:58:25;95822.91;;;10.81;74.31
8253;BME280;61313;48.396;10.008;2023-05-16T02:01:00;95824.94;;;10.76;73.87
8253;BME280;61313;48.396;10.008;2023-05-16T02:03:28;95824.16;;;10.74;73.51
8253;BME280;61313;48.396;10.008;2023-05-16T02:05:54;95822.41;;;10.75;73.65
8253;BME280;61313;48.396;10.008;2023-05-16T02:08:19;95815.03;;;10.81;73.48
8253;BME280;61313;48.396;10.008;2023-05-16T02:10:45;95817.03;;;10.94;72.89
8253;BME280;61313;48.396;10.008;2023-05-16T02:13:10;95823.59;;;10.85;73.37
8253;BME280;61313;48.396;10.008;2023-05-16T02:15:36;95820.13;;;11.00;72.32
8253;BME280;61313;48.396;10.008;2023-05-16T02:18:01;95814.28;;;10.95;72.55
8253;BME280;61313;48.396;10.008;2023-05-16T02:20:26;95814.22;;;10.97;72.33
8253;BME280;61313;48.396;10.008;2023-05-16T02:22:52;95812.69;;;11.09;72.07
8253;BME280;61313;48.396;10.008;2023-05-16T02:25:17;95817.59;;;11.15;71.92
8253;BME280;61313;48.396;10.008;2023-05-16T02:27:43;95810.97;;;11.08;72.07
8253;BME280;61313;48.396;10.008;2023-05-16T02:30:11;95808.78;;;11.16;71.46
8253;BME280;61313;48.396;10.008;2023-05-16T02:32:40;95806.59;;;10.92;72.46
8253;BME280;61313;48.396;10.008;2023-05-16T02:35:09;95800.66;;;10.89;72.84
8253;BME280;61313;48.396;10.008;2023-05-16T02:37:35;95800.50;;;10.92;72.93
8253;BME280;61313;48.396;10.008;2023-05-16T02:40:00;95796.69;;;10.97;72.16
8253;BME280;61313;48.396;10.008;2023-05-16T02:42:25;95803.53;;;11.00;72.79
8253;BME280;61313;48.396;10.008;2023-05-16T02:44:56;95801.84;;;10.99;72.51
8253;BME280;61313;48.396;10.008;2023-05-16T02:47:21;95797.53;;;10.98;72.68
8253;BME280;61313;48.396;10.008;2023-05-16T02:49:47;95795.78;;;10.98;72.82
8253;BME280;61313;48.396;10.008;2023-05-16T02:52:12;95787.13;;;10.96;72.89
8253;BME280;61313;48.396;10.008;2023-05-16T02:54:37;95793.22;;;10.97;72.76
8253;BME280;61313;48.396;10.008;2023-05-16T02:57:03;95793.31;;;10.79;73.11
8253;BME280;61313;48.396;10.008;2023-05-16T02:59:29;95791.09;;;10.88;72.94
8253;BME280;61313;48.396;10.008;2023-05-16T03:01:54;95793.66;;;10.89;72.75
8253;BME280;61313;48.396;10.008;2023-05-16T03:04:19;95784.31;;;10.99;71.89
8253;BME280;61313;48.396;10.008;2023-05-16T03:06:45;95792.34;;;11.12;71.26
8253;BME280;61313;48.396;10.008;2023-05-16T03:09:11;95783.41;;;10.85;71.86
8253;BME280;61313;48.396;10.008;2023-05-16T03:11:36;95792.19;;;10.84;72.32
8253;BME280;61313;48.396;10.008;2023-05-16T03:14:02;95784.97;;;11.03;71.17
8253;BME280;61313;48.396;10.008;2023-05-16T03:16:27;95784.41;;;10.98;71.75
8253;BME280;61313;48.396;10.008;2023-05-16T03:18:52;95785.34;;;10.97;71.40
8253;BME280;61313;48.396;10.008;2023-05-16T03:21:18;95788.28;;;10.91;71.44
8253;BME280;61313;48.396;10.008;2023-05-16T03:23:43;95788.72;;;10.99;71.54
8253;BME280;61313;48.396;10.008;2023-05-16T03:26:09;95785.34;;;10.97;71.47
8253;BME280;61313;48.396;10.008;2023-05-16T03:28:34;95782.44;;;10.70;71.80
8253;BME280;61313;48.396;10.008;2023-05-16T03:31:00;95778.97;;;10.69;72.43
8253;BME280;61313;48.396;10.008;2023-05-16T03:33:25;95779.94;;;10.51;73.45
8253;BME280;61313;48.396;10.008;2023-05-16T03:35:51;95776.78;;;10.62;72.95
8253;BME280;61313;48.396;10.008;2023-05-16T03:38:17;95778.06;;;10.70;72.79
8253;BME280;61313;48.396;10.008;2023-05-16T03:40:42;95784.56;;;10.63;72.84
8253;BME280;61313;48.396;10.008;2023-05-16T03:43:07;95784.03;;;10.72;72.07
8253;BME280;61313;48.396;10.008;2023-05-16T03:45:33;95793.44;;;10.76;72.19
8253;BME280;61313;48.396;10.008;2023-05-16T03:47:58;95796.69;;;10.32;74.17
8253;BME280;61313;48.396;10.008;2023-05-16T03:50:24;95792.34;;;10.49;73.67
8253;BME280;61313;48.396;10.008;2023-05-16T03:52:50;95791.28;;;10.35;73.16
8253;BME280;61313;48.396;10.008;2023-05-16T03:55:18;95798.56;;;10.46;73.34
8253;BME280;61313;48.396;10.008;2023-05-16T03:57:43;95793.41;;;10.60;73.36
8253;BME280;61313;48.396;10.008;2023-05-16T04:00:10;95796.25;;;10.73;72.52
8253;BME280;61313;48.396;10.008;2023-05-16T04:02:39;95796.41;;;10.86;72.25
8253;BME280;61313;48.396;10.008;2023-05-16T04:05:07;95802.59;;;10.85;72.38
8253;BME280;61313;48.396;10.008;2023-05-16T04:07:32;95804.03;;;10.91;72.29
8253;BME280;61313;48.396;10.008;2023-05-16T04:09:58;95805.81;;;10.58;73.54
8253;BME280;61313;48.396;10.008;2023-05-16T04:12:23;95803.19;;;10.74;72.59
8253;BME280;61313;48.396;10.008;2023-05-16T04:14:49;95810.41;;;10.53;73.86
8253;BME280;61313;48.396;10.008;2023-05-16T04:17:14;95814.63;;;10.40;74.84
8253;BME280;61313;48.396;10.008;2023-05-16T04:19:40;95818.72;;;10.46;74.64
8253;BME280;61313;48.396;10.008;2023-05-16T04:22:05;95818.97;;;10.24;75.38
8253;BME280;61313;48.396;10.008;2023-05-16T04:24:32;95823.63;;;10.52;74.26
8253;BME280;61313;48.396;10.008;2023-05-16T04:26:57;95823.66;;;10.34;74.91
8253;BME280;61313;48.396;10.008;2023-05-16T04:29:23;95828.84;;;10.18;75.46
8253;BME280;61313;48.396;10.008;2023-05-16T04:31:48;95827.34;;;10.48;74.71
8253;BME280;61313;48.396;10.008;2023-05-16T04:34:13;95831.91;;;10.44;74.86
8253;BME280;61313;48.396;10.008;2023-05-16T04:36:40;95820.84;;;10.55;74.37
8253;BME280;61313;48.396;10.008;2023-05-16T04:39:06;95826.19;;;10.69;73.71
8253;BME280;61313;48.396;10.008;2023-05-16T04:41:32;95821.31;;;10.95;72.92
8253;BME280;61313;48.396;10.008;2023-05-16T04:43:59;95822.88;;;10.99;72.80
8253;BME280;61313;48.396;10.008;2023-05-16T04:46:25;95825.75;;;11.10;72.17
8253;BME280;61313;48.396;10.008;2023-05-16T04:48:51;95822.25;;;11.10;72.84
8253;BME280;61313;48.396;10.008;2023-05-16T04:51:16;95820.50;;;10.94;73.08
8253;BME280;61313;48.396;10.008;2023-05-16T04:53:42;95821.16;;;11.14;72.78
8253;BME280;61313;48.396;10.008;2023-05-16T04:56:07;95827.16;;;11.00;73.26
8253;BME280;61313;48.396;10.008;2023-05-16T04:58:32;95826.09;;;11.20;72.52
8253;BME280;61313;48.396;10.008;2023-05-16T05:00:58;95829.56;;;11.20;72.75
8253;BME280;61313;48.396;10.008;2023-05-16T05:03:24;95827.75;;;11.37;72.07
8253;BME280;61313;48.396;10.008;2023-05-16T05:05:49;95829.56;;;11.20;72.56
8253;BME280;61313;48.396;10.008;2023-05-16T05:08:15;95826.56;;;11.27;72.45
8253;BME280;61313;48.396;10.008;2023-05-16T05:10:40;95822.84;;;11.31;72.47
8253;BME280;61313;48.396;10.008;2023-05-16T05:13:06;95835.13;;;11.14;73.41
8253;BME280;61313;48.396;10.008;2023-05-16T05:15:31;95836.53;;;10.72;75.25
8253;BME280;61313;48.396;10.008;2023-05-16T05:17:57;95830.28;;;10.91;74.90
8253;BME280;61313;48.396;10.008;2023-05-16T05:20:22;95833.50;;;10.96;75.02
8253;BME280;61313;48.396;10.008;2023-05-16T05:22:48;95834.28;;;11.30;73.29
8253;BME280;61313;48.396;10.008;2023-05-16T05:25:13;95837.06;;;11.42;72.99
8253;BME280;61313;48.396;10.008;2023-05-16T05:27:39;95838.59;;;11.62;72.57
8253;BME280;61313;48.396;10.008;2023-05-16T05:30:05;95837.31;;;11.70;72.30
8253;BME280;61313;48.396;10.008;2023-05-16T05:32:31;95837.91;;;11.43;72.88
8253;BME280;61313;48.396;10.008;2023-05-16T05:34:57;95841.41;;;11.43;72.85
8253;BME280;61313;48.396;10.008;2023-05-16T05:37:22;95837.81;;;11.60;72.17
8253;BME280;61313;48.396;10.008;2023-05-16T05:39:48;95831.09;;;11.71;71.87
8253;BME280;61313;48.396;10.008;2023-05-16T05:42:13;95832.25;;;12.41;82.36
8253;BME280;61313;48.396;10.008;2023-05-16T05:44:38;95817.66;;;13.76;78.32
8253;BME280;61313;48.396;10.008;2023-05-16T05:47:06;95811.06;;;13.56;66.92
8253;BME280;61313;48.396;10.008;2023-05-16T05:49:31;95829.81;;;12.81;69.16
8253;BME280;61313;48.396;10.008;2023-05-16T05:51:57;95826.34;;;12.66;69.80
8253;BME280;61313;48.396;10.008;2023-05-16T05:54:24;95824.91;;;12.61;70.39
8253;BME280;61313;48.396;10.008;2023-05-16T05:56:50;95827.09;;;12.83;69.68
8253;BME280;61313;48.396;10.008;2023-05-16T05:59:15;95828.88;;;12.68;70.49
8253;BME280;61313;48.396;10.008;2023-05-16T06:01:41;95828.50;;;12.74;69.92
8253;BME280;61313;48.396;10.008;2023-05-16T06:04:08;95827.66;;;12.74;71.02
8253;BME280;61313;48.396;10.008;2023-05-16T06:06:33;95823.22;;;12.74;70.90
8253;BME280;61313;48.396;10.008;2023-05-16T06:08:58;95831.84;;;13.05;70.13
8253;BME280;61313;48.396;10.008;2023-05-16T06:11:24;95836.63;;;13.12;69.37
8253;BME280;61313;48.396;10.008;2023-05-16T06:13:50;95826.06;;;13.41;68.08
8253;BME280;61313;48.396;10.008;2023-05-16T06:16:16;95830.66;;;13.52;67.70
8253;BME280;61313;48.396;10.008;2023-05-16T06:18:41;95827.00;;;13.67;67.42
8253;BME280;61313;48.396;10.008;2023-05-16T06:21:07;95830.03;;;13.88;66.46
8253;BME280;61313;48.396;10.008;2023-05-16T06:23:33;95825.22;;;13.68;67.65
8253;BME280;61313;48.396;10.008;2023-05-16T06:25:58;95828.28;;;13.74;67.20
8253;BME280;61313;48.396;10.008;2023-05-16T06:28:24;95821.03;;;13.78;67.76
8253;BME280;61313;48.396;10.008;2023-05-16T06:30:49;95824.13;;;13.97;66.96
8253;BME280;61313;48.396;10.008;2023-05-16T06:33:16;95824.28;;;14.09;66.17
8253;BME280;61313;48.396;10.008;2023-05-16T06:35:42;95821.53;;;14.10;65.91
8253;BME280;61313;48.396;10.008;2023-05-16T06:38:08;95820.06;;;14.06;66.58
8253;BME280;61313;48.396;10.008;2023-05-16T06:40:33;95823.09;;;14.00;66.22
8253;BME280;61313;48.396;10.008;2023-05-16T06:42:59;95821.75;;;14.20;66.58
8253;BME280;61313;48.396;10.008;2023-05-16T06:45:24;95807.94;;;14.42;65.34
8253;BME280;61313;48.396;10.008;2023-05-16T06:47:50;95817.38;;;14.72;64.42
8253;BME280;61313;48.396;10.008;2023-05-16T06:50:15;95807.03;;;14.56;63.02
8253;BME280;61313;48.396;10.008;2023-05-16T06:52:41;95815.44;;;14.74;63.25
8253;BME280;61313;48.396;10.008;2023-05-16T06:55:07;95819.56;;;14.39;63.95
8253;BME280;61313;48.396;10.008;2023-05-16T06:57:33;95821.66;;;14.34;64.74
8253;BME280;61313;48.396;10.008;2023-05-16T06:59:58;95828.28;;;14.14;65.13
8253;BME280;61313;48.396;10.008;2023-05-16T07:02:24;95825.84;;;14.11;65.10
8253;BME280;61313;48.396;10.008;2023-05-16T07:04:49;95827.88;;;14.21;64.98
8253;BME280;61313;48.396;10.008;2023-05-16T07:07:15;95827.34;;;14.28;65.12
8253;BME280;61313;48.396;10.008;2023-05-16T07:09:40;95827.56;;;14.38;64.53
8253;BME280;61313;48.396;10.008;2023-05-16T07:12:06;95828.00;;;14.32;64.25
8253;BME280;61313;48.396;10.008;2023-05-16T07:14:31;95825.78;;;14.51;64.47
8253;BME280;61313;48.396;10.008;2023-05-16T07:16:57;95815.09;;;15.04;63.09
8253;BME280;61313;48.396;10.008;2023-05-16T07:19:22;95810.88;;;15.38;61.89
8253;BME280;61313;48.396;10.008;2023-05-16T07:21:48;95820.06;;;15.70;60.97
8253;BME280;61313;48.396;10.008;2023-05-16T07:24:13;95821.66;;;15.72;60.29
8253;BME280;61313;48.396;10.008;2023-05-16T07:26:38;95827.56;;;16.00;59.91
8253;BME280;61313;48.396;10.008;2023-05-16T07:29:04;95819.34;;;16.27;58.60
8253;BME280;61313;48.396;10.008;2023-05-16T07:31:29;95823.22;;;15.99;60.06
8253;BME280;61313;48.396;10.008;2023-05-16T07:33:55;95827.63;;;16.22;59.55
8253;BME280;61313;48.396;10.008;2023-05-16T07:36:21;95828.50;;;16.23;59.22
8253;BME280;61313;48.396;10.008;2023-05-16T07:38:46;95827.47;;;16.13;58.18
8253;BME280;61313;48.396;10.008;2023-05-16T07:41:12;95828.72;;;16.20;58.30
8253;BME280;61313;48.396;10.008;2023-05-16T07:43:37;95831.81;;;16.60;57.45
8253;BME280;61313;48.396;10.008;2023-05-16T07:46:04;95836.06;;;16.27;58.12
8253;BME280;61313;48.396;10.008;2023-05-16T07:48:29;95839.75;;;16.49;57.96
8253;BME280;61313;48.396;10.008;2023-05-16T07:50:55;95838.75;;;16.39;58.06
8253;BME280;61313;48.396;10.008;2023-05-16T07:53:21;95846.66;;;16.27;58.13
8253;BME280;61313;48.396;10.008;2023-05-16T07:55:47;95839.63;;;16.04;58.69
8253;BME280;61313;48.396;10.008;2023-05-16T07:58:13;95842.91;;;15.83;60.22
8253;BME280;61313;48.396;10.008;2023-05-16T08:00:38;95835.41;;;15.77;59.98
8253;BME280;61313;48.396;10.008;2023-05-16T08:03:04;95836.97;;;15.80;59.52
8253;BME280;61313;48.396;10.008;2023-05-16T08:05:30;95830.25;;;15.76;59.64
8253;BME280;61313;48.396;10.008;2023-05-16T08:07:56;95834.94;;;15.59;60.45
8253;BME280;61313;48.396;10.008;2023-05-16T08:10:21;95834.13;;;15.46;60.42
8253;BME280;61313;48.396;10.008;2023-05-16T08:12:50;95843.19;;;15.18;61.74
8253;BME280;61313;48.396;10.008;2023-05-16T08:15:17;95834.69;;;15.25;61.69
8253;BME280;61313;48.396;10.008;2023-05-16T08:17:42;95840.13;;;15.24;61.68
8253;BME280;61313;48.396;10.008;2023-05-16T08:20:08;95835.25;;;15.18;61.13
8253;BME280;61313;48.396;10.008;2023-05-16T08:22:33;95841.19;;;15.21;61.88
8253;BME280;61313;48.396;10.008;2023-05-16T08:24:59;95836.72;;;15.22;61.55
8253;BME280;61313;48.396;10.008;2023-05-16T08:27:26;95843.03;;;15.32;60.91
8253;BME280;61313;48.396;10.008;2023-05-16T08:29:51;95849.44;;;15.17;61.01
8253;BME280;61313;48.396;10.008;2023-05-16T08:32:17;95843.97;;;15.07;60.97
8253;BME280;61313;48.396;10.008;2023-05-16T08:34:42;95853.06;;;15.03;61.28
8253;BME280;61313;48.396;10.008;2023-05-16T08:37:08;95845.94;;;15.16;61.01
8253;BME280;61313;48.396;10.008;2023-05-16T08:39:34;95849.63;;;15.14;61.25
8253;BME280;61313;48.396;10.008;2023-05-16T08:42:00;95846.91;;;15.15;60.66
8253;BME280;61313;48.396;10.008;2023-05-16T08:44:27;95858.47;;;14.89;60.61
8253;BME280;61313;48.396;10.008;2023-05-16T08:46:53;95862.03;;;14.88;61.29
8253;BME280;61313;48.396;10.008;2023-05-16T08:49:19;95868.81;;;14.92;60.66
8253;BME280;61313;48.396;10.008;2023-05-16T08:51:47;95873.88;;;14.56;60.48
8253;BME280;61313;48.396;10.008;2023-05-16T08:54:14;95866.63;;;14.33;61.59
8253;BME280;61313;48.396;10.008;2023-05-16T08:56:44;95866.00;;;14.29;61.13
8253;BME280;61313;48.396;10.008;2023-05-16T08:59:10;95863.69;;;14.50;61.17
8253;BME280;61313;48.396;10.008;2023-05-16T09:01:39;95875.00;;;14.52;60.94
8253;BME280;61313;48.396;10.008;2023-05-16T09:04:06;95871.34;;;14.68;61.05
8253;BME280;61313;48.396;10.008;2023-05-16T09:06:32;95878.16;;;14.45;61.21
8253;BME280;61313;48.396;10.008;2023-05-16T09:08:58;95884.50;;;14.02;61.67
8253;BME280;61313;48.396;10.008;2023-05-16T09:11:23;95874.34;;;13.96;63.04
8253;BME280;61313;48.396;10.008;2023-05-16T09:13:49;95879.44;;;13.99;62.57
8253;BME280;61313;48.396;10.008;2023-05-16T09:16:19;95876.59;;;14.02;62.93
8253;BME280;61313;48.396;10.008;2023-05-16T09:18:53;95877.81;;;14.24;62.14
8253;BME280;61313;48.396;10.008;2023-05-16T09:21:19;95876.19;;;14.08;62.60
8253;BME280;61313;48.396;10.008;2023-05-16T09:23:48;95878.03;;;14.21;62.75
8253;BME280;61313;48.396;10.008;2023-05-16T09:26:14;95875.22;;;14.36;62.09
8253;BME280;61313;48.396;10.008;2023-05-16T09:28:39;95880.28;;;14.52;61.84
8253;BME280;61313;48.396;10.008;2023-05-16T09:31:24;95883.28;;;14.73;61.20
8253;BME280;61313;48.396;10.008;2023-05-16T09:34:00;95883.81;;;14.78;61.15
8253;BME280;61313;48.396;10.008;2023-05-16T09:36:26;95882.97;;;14.65;61.43
8253;BME280;61313;48.396;10.008;2023-05-16T09:38:51;95877.25;;;14.71;61.54
8253;BME280;61313;48.396;10.008;2023-05-16T09:41:17;95885.00;;;14.74;61.00
8253;BME280;61313;48.396;10.008;2023-05-16T09:43:43;95875.88;;;14.78;61.21
8253;BME280;61313;48.396;10.008;2023-05-16T09:46:13;95883.28;;;14.86;61.22
8253;BME280;61313;48.396;10.008;2023-05-16T09:48:46;95878.44;;;14.80;61.34
8253;BME280;61313;48.396;10.008;2023-05-16T09:51:12;95868.09;;;14.77;61.86
8253;BME280;61313;48.396;10.008;2023-05-16T09:53:39;95872.31;;;14.79;61.21
8253;BME280;61313;48.396;10.008;2023-05-16T09:56:09;95874.63;;;14.71;62.06
8253;BME280;61313;48.396;10.008;2023-05-16T09:58:39;95867.34;;;14.75;62.04
8253;BME280;61313;48.396;10.008;2023-05-16T10:01:06;95861.28;;;14.86;61.75
8253;BME280;61313;48.396;10.008;2023-05-16T10:03:34;95867.44;;;14.73;61.46
8253;BME280;61313;48.396;10.008;2023-05-16T10:06:00;95861.84;;;14.78;61.96
8253;BME280;61313;48.396;10.008;2023-05-16T10:08:27;95869.97;;;14.75;61.57
8253;BME280;61313;48.396;10.008;2023-05-16T10:10:55;95867.44;;;14.86;61.35
8253;BME280;61313;48.396;10.008;2023-05-16T10:13:23;95865.63;;;14.74;61.58
8253;BME280;61313;48.396;10.008;2023-05-16T10:15:54;95879.06;;;14.71;61.49
8253;BME280;61313;48.396;10.008;2023-05-16T10:18:22;95872.09;;;14.70;62.32
8253;BME280;61313;48.396;10.008;2023-05-16T10:20:50;95875.97;;;14.64;62.63
8253;BME280;61313;48.396;10.008;2023-05-16T10:23:19;95880.22;;;14.67;63.16
8253;BME280;61313;48.396;10.008;2023-05-16T10:25:47;95870.09;;;14.60;63.41
8253;BME280;61313;48.396;10.008;2023-05-16T10:28:14;95873.94;;;14.29;65.91
8253;BME280;61313;48.396;10.008;2023-05-16T10:30:41;95877.84;;;14.49;65.90
8253;BME280;61313;48.396;10.008;2023-05-16T10:33:10;95873.72;;;14.45;64.66
8253;BME280;61313;48.396;10.008;2023-05-16T10:35:36;95883.53;;;14.43;65.01
8253;BME280;61313;48.396;10.008;2023-05-16T10:38:02;95882.75;;;14.55;65.96
8253;BME280;61313;48.396;10.008;2023-05-16T10:40:29;95863.22;;;14.71;65.05
8253;BME280;61313;48.396;10.008;2023-05-16T10:43:02;95871.66;;;14.63;64.79
8253;BME280;61313;48.396;10.008;2023-05-16T10:45:28;95863.13;;;14.72;64.60
8253;BME280;61313;48.396;10.008;2023-05-16T10:48:01;95864.06;;;14.84;63.92
8253;BME280;61313;48.396;10.008;2023-05-16T10:50:44;95866.38;;;14.89;64.08
8253;BME280;61313;48.396;10.008;2023-05-16T10:53:21;95858.88;;;14.95;63.20
8253;BME280;61313;48.396;10.008;2023-05-16T10:56:05;95864.88;;;14.97;62.10
8253;BME280;61313;48.396;10.008;2023-05-16T11:01:26;95879.66;;;15.13;60.90
8253;BME280;61313;48.396;10.008;2023-05-16T11:06:24;95880.31;;;15.03;61.10
8253;BME280;61313;48.396;10.008;2023-05-16T11:14:02;95890.56;;;15.08;61.57
8253;BME280;61313;48.396;10.008;2023-05-16T11:16:28;95890.66;;;15.07;60.45
8253;BME280;61313;48.396;10.008;2023-05-16T11:18:54;95880.09;;;15.07;60.10
8253;BME280;61313;48.396;10.008;2023-05-16T11:21:19;95890.84;;;15.16;59.24
8253;BME280;61313;48.396;10.008;2023-05-16T11:26:50;95890.66;;;15.07;59.06
8253;BME280;61313;48.396;10.008;2023-05-16T11:29:15;95888.34;;;15.15;59.38
8253;BME280;61313;48.396;10.008;2023-05-16T11:31:40;95880.19;;;15.31;59.02
8253;BME280;61313;48.396;10.008;2023-05-16T11:34:06;95880.53;;;15.00;59.27
8253;BME280;61313;48.396;10.008;2023-05-16T11:36:31;95878.59;;;15.15;59.51
8253;BME280;61313;48.396;10.008;2023-05-16T11:39:07;95881.16;;;15.17;60.27
8253;BME280;61313;48.396;10.008;2023-05-16T11:41:34;95880.31;;;15.03;60.57
8253;BME280;61313;48.396;10.008;2023-05-16T11:44:00;95865.75;;;14.72;61.69
8253;BME280;61313;48.396;10.008;2023-05-16T11:46:25;95884.44;;;14.69;62.44
8253;BME280;61313;48.396;10.008;2023-05-16T11:48:51;95882.88;;;14.79;63.87
8253;BME280;61313;48.396;10.008;2023-05-16T11:51:18;95892.38;;;14.82;64.46
8253;BME280;61313;48.396;10.008;2023-05-16T11:53:46;95883.28;;;14.99;64.56
8253;BME280;61313;48.396;10.008;2023-05-16T11:56:14;95876.31;;;14.85;63.83
8253;BME280;61313;48.396;10.008;2023-05-16T11:58:40;95885.19;;;14.58;64.43
8253;BME280;61313;48.396;10.008;2023-05-16T12:01:06;95895.72;;;14.46;64.57
8253;BME280;61313;48.396;10.008;2023-05-16T12:03:32;95887.06;;;14.56;62.62
8253;BME280;61313;48.396;10.008;2023-05-16T12:05:59;95886.59;;;14.37;63.34
8253;BME280;61313;48.396;10.008;2023-05-16T12:08:25;95884.13;;;14.61;63.18
8253;BME280;61313;48.396;10.008;2023-05-16T12:10:51;95888.13;;;14.67;62.25
8253;BME280;61313;48.396;10.008;2023-05-16T12:13:19;95883.50;;;14.70;61.58
8253;BME280;61313;48.396;10.008;2023-05-16T12:15:45;95891.63;;;14.80;61.01
8253;BME280;61313;48.396;10.008;2023-05-16T12:18:18;95887.94;;;14.70;60.70
8253;BME280;61313;48.396;10.008;2023-05-16T12:20:45;95903.28;;;14.25;60.23
8253;BME280;61313;48.396;10.008;2023-05-16T12:23:11;95901.19;;;14.43;59.58
8253;BME280;61313;48.396;10.008;2023-05-16T12:25:37;95900.84;;;14.34;60.38
8253;BME280;61313;48.396;10.008;2023-05-16T12:28:11;95905.03;;;14.24;60.42
8253;BME280;61313;48.396;10.008;2023-05-16T12:30:42;95899.75;;;14.11;60.51
8253;BME280;61313;48.396;10.008;2023-05-16T12:33:16;95910.06;;;14.42;60.34
8253;BME280;61313;48.396;10.008;2023-05-16T12:35:44;95906.69;;;14.52;60.02
8253;BME280;61313;48.396;10.008;2023-05-16T12:38:12;95909.53;;;14.49;59.94
8253;BME280;61313;48.396;10.008;2023-05-16T12:40:39;95904.16;;;14.51;58.18
8253;BME280;61313;48.396;10.008;2023-05-16T12:45:39;95897.63;;;14.56;58.51
8253;BME280;61313;48.396;10.008;2023-05-16T12:48:15;95900.66;;;14.50;58.39
8253;BME280;61313;48.396;10.008;2023-05-16T12:50:41;95899.22;;;14.59;57.15
8253;BME280;61313;48.396;10.008;2023-05-16T12:53:11;95909.03;;;14.57;57.42
8253;BME280;61313;48.396;10.008;2023-05-16T12:55:37;95895.47;;;14.36;58.40
8253;BME280;61313;48.396;10.008;2023-05-16T12:58:02;95902.25;;;14.53;57.60
8253;BME280;61313;48.396;10.008;2023-05-16T13:00:27;95901.25;;;14.55;57.81
8253;BME280;61313;48.396;10.008;2023-05-16T13:02:53;95901.66;;;14.62;57.68
8253;BME280;61313;48.396;10.008;2023-05-16T13:05:19;95900.19;;;14.71;57.77
8253;BME280;61313;48.396;10.008;2023-05-16T13:07:47;95899.16;;;14.86;57.47
8253;BME280;61313;48.396;10.008;2023-05-16T13:10:16;95892.69;;;14.90;57.80
8253;BME280;61313;48.396;10.008;2023-05-16T13:12:41;95895.75;;;15.10;56.81
8253;BME280;61313;48.396;10.008;2023-05-16T13:15:08;95894.88;;;15.09;56.62
8253;BME280;61313;48.396;10.008;2023-05-16T13:17:35;95894.06;;;14.96;56.87
8253;BME280;61313;48.396;10.008;2023-05-16T13:20:01;95895.66;;;14.98;56.53
8253;BME280;61313;48.396;10.008;2023-05-16T13:22:29;95899.00;;;15.13;57.22
8253;BME280;61313;48.396;10.008;2023-05-16T13:24:55;95902.97;;;15.44;56.07